createdAt,value
2023-03-19T00:00:36.652Z,10.30
2023-03-19T00:03:05.111Z,10.25
2023-03-19T00:05:33.827Z,10.16
2023-03-19T00:08:02.243Z,10.16
2023-03-19T00:10:30.540Z,10.15
2023-03-19T00:12:58.802Z,10.20
2023-03-19T00:15:27.039Z,10.13
2023-03-19T00:17:56.715Z,10.14
2023-03-19T00:20:24.954Z,10.18
2023-03-19T00:22:53.204Z,10.21
2023-03-19T00:25:21.748Z,10.24
2023-03-19T00:27:49.989Z,10.16
2023-03-19T00:30:18.445Z,10.16
2023-03-19T00:32:46.825Z,10.14
2023-03-19T00:35:16.702Z,10.18
2023-03-19T00:37:44.965Z,10.22
2023-03-19T00:40:13.982Z,10.23
2023-03-19T00:42:44.797Z,10.24
2023-03-19T00:45:13.899Z,10.29
2023-03-19T00:47:42.224Z,10.27
2023-03-19T00:50:11.732Z,10.25
2023-03-19T00:52:41.655Z,10.27
2023-03-19T00:55:11.007Z,10.25
2023-03-19T00:57:39.675Z,10.26
2023-03-19T01:00:10.871Z,10.23
2023-03-19T01:02:39.749Z,10.26
2023-03-19T01:05:09.606Z,10.29
2023-03-19T01:07:38.509Z,10.27
2023-03-19T01:10:09.729Z,10.27
2023-03-19T01:12:39.742Z,10.24
2023-03-19T01:15:09.653Z,10.24
2023-03-19T01:17:38.815Z,10.24
2023-03-19T01:20:13.128Z,10.24
2023-03-19T01:22:42.435Z,10.24
2023-03-19T01:25:14.378Z,10.15
2023-03-19T01:27:52.362Z,10.05
2023-03-19T01:30:21.711Z,9.94
2023-03-19T01:33:16.134Z,9.85
2023-03-19T01:36:06.095Z,9.79
2023-03-19T01:38:54.125Z,9.71
2023-03-19T01:41:24.450Z,9.63
2023-03-19T01:43:55.049Z,9.50
2023-03-19T01:46:51.033Z,9.53
2023-03-19T01:49:36.338Z,9.54
2023-03-19T01:52:16.922Z,9.46
2023-03-19T01:55:00.377Z,9.40
2023-03-19T01:57:52.399Z,9.32
2023-03-19T02:00:35.808Z,9.26
2023-03-19T02:03:05.114Z,9.20
2023-03-19T02:05:57.579Z,9.12
2023-03-19T02:08:27.219Z,9.06
2023-03-19T02:11:00.322Z,9.03
2023-03-19T02:13:30.115Z,8.96
2023-03-19T02:15:58.872Z,8.91
2023-03-19T02:18:27.245Z,8.78
2023-03-19T02:21:01.821Z,8.74
2023-03-19T02:23:36.913Z,8.67
2023-03-19T02:26:16.642Z,8.59
2023-03-19T02:28:47.201Z,8.61
2023-03-19T02:31:20.791Z,8.68
2023-03-19T02:33:59.273Z,8.64
2023-03-19T02:36:31.947Z,8.62
2023-03-19T02:39:03.894Z,8.58
2023-03-19T02:41:35.473Z,8.66
2023-03-19T02:44:04.986Z,8.78
2023-03-19T02:46:34.132Z,8.76
2023-03-19T02:49:02.474Z,8.68
2023-03-19T02:51:30.985Z,8.68
2023-03-19T02:54:00.966Z,8.62
2023-03-19T02:56:29.261Z,8.60
2023-03-19T02:58:58.926Z,8.53
2023-03-19T03:01:27.226Z,8.51
2023-03-19T03:03:55.746Z,8.45
2023-03-19T03:06:24.221Z,8.44
2023-03-19T03:08:52.510Z,8.39
2023-03-19T03:11:20.745Z,8.35
2023-03-19T03:13:49.209Z,8.36
2023-03-19T03:16:18.874Z,8.33
2023-03-19T03:18:47.207Z,8.29
2023-03-19T03:21:15.610Z,8.31
2023-03-19T03:23:43.912Z,8.26
2023-03-19T03:26:12.265Z,8.30
2023-03-19T03:28:40.539Z,8.19
2023-03-19T03:31:08.961Z,8.20
2023-03-19T03:33:38.718Z,8.17
2023-03-19T03:36:08.470Z,8.18
2023-03-19T03:38:37.033Z,8.18
2023-03-19T03:41:05.336Z,8.21
2023-03-19T03:43:33.915Z,8.12
2023-03-19T03:46:02.652Z,8.14
2023-03-19T03:48:31.154Z,8.06
2023-03-19T03:51:00.799Z,7.91
2023-03-19T03:53:30.381Z,7.88
2023-03-19T03:55:58.712Z,7.92
2023-03-19T03:58:29.272Z,7.92
2023-03-19T04:00:57.700Z,7.92
2023-03-19T04:03:27.235Z,7.94
2023-03-19T04:05:56.033Z,7.90
2023-03-19T04:08:25.830Z,7.89
2023-03-19T04:10:54.180Z,7.83
2023-03-19T04:13:22.428Z,7.83
2023-03-19T04:15:50.886Z,7.83
2023-03-19T04:18:24.804Z,7.84
2023-03-19T04:20:53.520Z,7.84
2023-03-19T04:23:21.758Z,7.77
2023-03-19T04:25:51.931Z,7.82
2023-03-19T04:28:20.293Z,7.74
2023-03-19T04:30:48.716Z,7.69
2023-03-19T04:33:18.572Z,7.65
2023-03-19T04:35:47.108Z,7.60
2023-03-19T04:38:15.385Z,7.58
2023-03-19T04:40:50.734Z,7.49
2023-03-19T04:43:23.933Z,7.48
2023-03-19T04:45:53.418Z,7.46
2023-03-19T04:48:23.359Z,7.44
2023-03-19T04:50:57.012Z,7.45
2023-03-19T04:53:25.740Z,7.47
2023-03-19T04:55:54.109Z,7.47
2023-03-19T04:58:24.211Z,7.44
2023-03-19T05:00:59.104Z,7.42
2023-03-19T05:03:47.334Z,7.33
2023-03-19T05:06:16.959Z,7.29
2023-03-19T05:08:45.900Z,7.28
2023-03-19T05:11:15.402Z,7.26
2023-03-19T05:13:59.613Z,7.34
2023-03-19T05:16:34.801Z,7.40
2023-03-19T05:19:03.566Z,7.50
2023-03-19T05:21:34.174Z,7.52
2023-03-19T05:24:02.813Z,7.52
2023-03-19T05:26:35.669Z,7.50
2023-03-19T05:29:14.772Z,7.53
2023-03-19T05:32:03.368Z,7.52
2023-03-19T05:34:33.164Z,7.52
2023-03-19T05:37:01.734Z,7.58
2023-03-19T05:39:29.975Z,7.58
2023-03-19T05:42:03.053Z,7.61
2023-03-19T05:44:33.373Z,7.63
2023-03-19T05:47:09.853Z,7.67
2023-03-19T05:49:40.700Z,7.70
2023-03-19T05:52:09.315Z,7.72
2023-03-19T05:54:38.725Z,7.81
2023-03-19T05:57:29.893Z,7.86
2023-03-19T06:00:10.471Z,7.94
2023-03-19T06:02:39.360Z,7.96
2023-03-19T06:05:29.119Z,7.97
2023-03-19T06:08:02.072Z,8.03
2023-03-19T06:10:48.972Z,8.09
2023-03-19T06:13:17.908Z,8.19
2023-03-19T06:15:56.312Z,8.22
2023-03-19T06:18:36.653Z,8.27
2023-03-19T06:21:10.343Z,8.35
2023-03-19T06:23:39.221Z,8.32
2023-03-19T06:26:09.257Z,8.31
2023-03-19T06:28:45.363Z,8.33
2023-03-19T06:31:17.352Z,8.43
2023-03-19T06:34:11.923Z,8.44
2023-03-19T06:36:42.883Z,8.48
2023-03-19T06:39:14.228Z,8.53
2023-03-19T06:41:42.513Z,8.65
2023-03-19T06:44:15.782Z,8.60
2023-03-19T06:46:45.478Z,8.50
2023-03-19T06:49:13.727Z,8.55
2023-03-19T06:51:41.962Z,8.57
2023-03-19T06:54:10.309Z,8.63
2023-03-19T06:56:39.026Z,8.68
2023-03-19T06:59:07.419Z,8.78
2023-03-19T07:01:36.000Z,8.95
2023-03-19T07:04:05.623Z,9.07
2023-03-19T07:06:34.679Z,9.20
2023-03-19T07:09:03.453Z,9.22
2023-03-19T07:11:33.802Z,9.38
2023-03-19T07:14:03.609Z,9.45
2023-03-19T07:16:32.290Z,9.45
2023-03-19T07:19:05.072Z,9.48
2023-03-19T07:21:33.358Z,9.59
2023-03-19T07:24:01.622Z,9.66
2023-03-19T07:26:29.893Z,9.85
2023-03-19T07:28:58.214Z,9.70
2023-03-19T07:31:26.480Z,9.75
2023-03-19T07:33:54.775Z,9.95
2023-03-19T07:36:24.624Z,9.96
2023-03-19T07:38:52.967Z,10.05
2023-03-19T07:41:21.389Z,9.91
2023-03-19T07:43:49.621Z,10.03
2023-03-19T07:46:18.162Z,10.27
2023-03-19T07:48:46.651Z,10.58
2023-03-19T07:51:14.913Z,10.70
2023-03-19T07:53:44.776Z,10.90
2023-03-19T07:56:13.744Z,11.08
2023-03-19T07:58:42.618Z,11.41
2023-03-19T08:01:10.854Z,11.41
2023-03-19T08:03:39.676Z,11.39
2023-03-19T08:06:08.038Z,11.67
2023-03-19T08:08:36.399Z,11.68
2023-03-19T08:11:06.951Z,11.63
2023-03-19T08:13:35.195Z,12.00
2023-03-19T08:16:03.556Z,12.61
2023-03-19T08:18:32.406Z,12.77
2023-03-19T08:21:00.722Z,12.97
2023-03-19T08:23:29.146Z,13.32
2023-03-19T08:25:57.426Z,13.04
2023-03-19T08:28:27.143Z,12.42
2023-03-19T08:30:56.132Z,12.47
2023-03-19T08:33:24.901Z,12.44
2023-03-19T08:35:53.420Z,12.26
2023-03-19T08:38:21.732Z,12.06
2023-03-19T08:40:49.978Z,12.20
2023-03-19T08:43:18.221Z,12.20
2023-03-19T08:45:47.875Z,12.11
2023-03-19T08:48:16.115Z,12.21
2023-03-19T08:50:44.329Z,12.48
2023-03-19T08:53:12.555Z,12.63
2023-03-19T08:55:41.690Z,12.33
2023-03-19T08:58:09.964Z,12.10
2023-03-19T09:00:39.145Z,11.99
2023-03-19T09:03:08.762Z,11.82
2023-03-19T09:05:37.384Z,11.77
2023-03-19T09:08:05.961Z,11.56
2023-03-19T09:10:34.822Z,11.48
2023-03-19T09:13:03.296Z,11.33
2023-03-19T09:15:31.904Z,11.26
2023-03-19T09:18:00.687Z,11.16
2023-03-19T09:20:30.393Z,11.13
2023-03-19T09:22:58.594Z,11.09
2023-03-19T09:25:26.825Z,11.00
2023-03-19T09:27:55.298Z,10.96
2023-03-19T09:30:23.741Z,10.94
2023-03-19T09:32:52.243Z,10.98
2023-03-19T09:35:20.566Z,10.85
2023-03-19T09:37:51.996Z,10.95
2023-03-19T09:40:25.965Z,10.97
2023-03-19T09:43:01.845Z,11.02
2023-03-19T09:45:30.744Z,10.94
2023-03-19T09:48:04.297Z,10.89
2023-03-19T09:50:34.776Z,10.95
2023-03-19T09:53:11.978Z,11.08
2023-03-19T09:55:44.287Z,11.01
2023-03-19T09:58:16.624Z,11.02
2023-03-19T10:00:48.755Z,11.12
2023-03-19T10:03:42.759Z,11.19
2023-03-19T10:06:27.176Z,11.57
2023-03-19T10:09:09.803Z,11.72
2023-03-19T10:11:52.762Z,11.96
2023-03-19T10:14:45.349Z,12.07
2023-03-19T10:17:18.281Z,12.01
2023-03-19T10:19:49.896Z,12.00
2023-03-19T10:22:23.081Z,11.83
2023-03-19T10:24:55.299Z,12.12
2023-03-19T10:27:26.973Z,12.20
2023-03-19T10:30:22.282Z,12.46
2023-03-19T10:32:55.746Z,12.15
2023-03-19T10:35:40.767Z,12.15
2023-03-19T10:38:20.026Z,12.19
2023-03-19T10:41:06.048Z,12.20
2023-03-19T10:43:35.553Z,12.20
2023-03-19T10:46:03.839Z,12.25
2023-03-19T10:48:33.497Z,12.00
2023-03-19T10:51:05.538Z,12.18
2023-03-19T10:53:35.534Z,12.32
2023-03-19T10:56:07.169Z,12.35
2023-03-19T10:58:37.703Z,12.63
2023-03-19T11:01:08.245Z,12.80
2023-03-19T11:03:39.204Z,13.18
2023-03-19T11:06:18.145Z,13.25
2023-03-19T11:08:55.355Z,13.37
2023-03-19T11:11:37.442Z,13.17
2023-03-19T11:14:17.020Z,13.06
2023-03-19T11:16:56.667Z,13.01
2023-03-19T11:19:26.430Z,12.95
2023-03-19T11:22:03.729Z,12.93
2023-03-19T11:24:37.469Z,12.75
2023-03-19T11:27:07.983Z,12.62
2023-03-19T11:29:41.749Z,12.73
2023-03-19T11:32:22.590Z,12.57
2023-03-19T11:34:59.024Z,12.40
2023-03-19T11:37:34.685Z,12.22
2023-03-19T11:40:13.823Z,12.23
2023-03-19T11:43:21.914Z,12.42
2023-03-19T11:46:01.579Z,12.53
2023-03-19T11:48:41.771Z,12.55
2023-03-19T11:51:15.420Z,12.86
2023-03-19T11:53:54.468Z,12.78
2023-03-19T11:56:37.640Z,12.94
2023-03-19T11:59:19.006Z,12.92
2023-03-19T12:02:25.119Z,13.02
2023-03-19T12:05:07.779Z,12.96
2023-03-19T12:07:42.490Z,13.07
2023-03-19T12:10:29.296Z,12.84
2023-03-19T12:13:09.511Z,12.71
2023-03-19T12:15:48.306Z,12.80
2023-03-19T12:18:29.312Z,13.08
2023-03-19T12:21:08.586Z,13.29
2023-03-19T12:23:52.204Z,13.43
2023-03-19T12:26:28.399Z,13.61
2023-03-19T12:29:05.379Z,13.53
2023-03-19T12:31:49.306Z,13.75
2023-03-19T12:34:30.586Z,13.83
2023-03-19T12:37:09.947Z,13.73
2023-03-19T12:39:44.930Z,13.85
2023-03-19T12:42:18.974Z,14.10
2023-03-19T12:44:52.277Z,14.28
2023-03-19T12:47:26.198Z,14.80
2023-03-19T12:50:02.043Z,15.07
2023-03-19T12:52:36.766Z,14.68
2023-03-19T12:55:13.909Z,14.81
2023-03-19T12:57:48.049Z,14.84
2023-03-19T13:00:20.891Z,14.28
2023-03-19T13:02:56.030Z,13.98
2023-03-19T13:05:33.866Z,13.48
2023-03-19T13:08:08.168Z,13.12
2023-03-19T13:10:36.976Z,12.61
2023-03-19T13:13:27.115Z,12.44
2023-03-19T13:16:00.401Z,12.63
2023-03-19T13:18:38.965Z,12.63
2023-03-19T13:21:23.054Z,12.61
2023-03-19T13:23:59.856Z,12.51
2023-03-19T13:26:28.752Z,12.71
2023-03-19T13:29:02.737Z,12.86
2023-03-19T13:31:35.736Z,13.15
2023-03-19T13:34:06.998Z,13.68
2023-03-19T13:36:40.244Z,14.19
2023-03-19T13:39:16.388Z,14.10
2023-03-19T13:41:54.895Z,13.59
2023-03-19T13:44:40.679Z,13.47
2023-03-19T13:47:40.785Z,13.40
2023-03-19T13:50:24.316Z,13.63
2023-03-19T13:52:57.971Z,13.50
2023-03-19T13:55:33.132Z,13.24
2023-03-19T13:58:17.832Z,12.73
2023-03-19T14:01:00.783Z,12.33
2023-03-19T14:03:32.136Z,12.07
2023-03-19T14:06:01.764Z,11.66
2023-03-19T14:08:42.815Z,11.18
2023-03-19T14:11:12.657Z,11.03
2023-03-19T14:13:43.472Z,10.92
2023-03-19T14:16:18.236Z,10.87
2023-03-19T14:18:46.918Z,10.99
2023-03-19T14:21:21.854Z,11.03
2023-03-19T14:23:57.725Z,11.38
2023-03-19T14:26:29.369Z,11.31
2023-03-19T14:29:02.549Z,11.15
2023-03-19T14:31:38.252Z,11.02
2023-03-19T14:34:20.197Z,11.14
2023-03-19T14:36:57.213Z,11.33
2023-03-19T14:39:29.271Z,11.03
2023-03-19T14:42:04.198Z,11.14
2023-03-19T14:45:19.529Z,11.29
2023-03-19T14:48:25.260Z,11.59
2023-03-19T14:51:19.984Z,11.52
2023-03-19T14:53:51.894Z,11.51
2023-03-19T14:56:25.023Z,11.60
2023-03-19T14:58:55.708Z,11.75
2023-03-19T15:01:27.035Z,11.63
2023-03-19T15:03:57.335Z,11.22
2023-03-19T15:06:26.304Z,11.07
2023-03-19T15:08:54.645Z,11.13
2023-03-19T15:11:52.377Z,11.04
2023-03-19T15:14:51.586Z,11.49
2023-03-19T15:17:24.732Z,11.89
2023-03-19T15:19:55.593Z,11.89
2023-03-19T15:22:31.278Z,11.61
2023-03-19T15:25:07.180Z,11.27
2023-03-19T15:27:37.014Z,11.53
2023-03-19T15:30:21.471Z,11.68
2023-03-19T15:33:04.624Z,11.62
2023-03-19T15:35:45.157Z,11.43
2023-03-19T15:38:17.931Z,11.44
2023-03-19T15:40:46.815Z,11.64
2023-03-19T15:43:20.454Z,11.66
2023-03-19T15:45:51.792Z,11.39
2023-03-19T15:48:23.588Z,11.39
2023-03-19T15:50:56.787Z,11.33
2023-03-19T15:53:28.552Z,11.33
2023-03-19T15:55:57.455Z,11.32
2023-03-19T15:58:30.878Z,11.37
2023-03-19T16:01:02.140Z,11.30
2023-03-19T16:03:35.137Z,11.10
2023-03-19T16:06:06.364Z,11.09
2023-03-19T16:08:34.839Z,10.86
2023-03-19T16:11:17.311Z,10.62
2023-03-19T16:13:58.381Z,10.58
2023-03-19T16:16:30.715Z,10.54
2023-03-19T16:18:59.799Z,10.49
2023-03-19T16:21:35.444Z,10.40
2023-03-19T16:24:05.950Z,10.39
2023-03-19T16:26:39.658Z,10.44
2023-03-19T16:29:20.536Z,10.48
2023-03-19T16:31:52.874Z,10.30
2023-03-19T16:34:32.263Z,10.13
2023-03-19T16:37:01.538Z,10.26
2023-03-19T16:39:37.320Z,10.20
2023-03-19T16:42:29.412Z,10.06
2023-03-19T16:45:03.121Z,10.06
2023-03-19T16:47:31.477Z,10.00
2023-03-19T16:49:59.786Z,9.83
2023-03-19T16:52:28.124Z,9.80
2023-03-19T16:54:58.067Z,9.70
2023-03-19T16:57:26.444Z,9.65
2023-03-19T16:59:54.754Z,9.62
2023-03-19T17:02:24.372Z,9.55
2023-03-19T17:04:52.657Z,9.67
2023-03-19T17:07:21.020Z,9.67
2023-03-19T17:09:49.409Z,9.69
2023-03-19T17:12:18.542Z,9.63
2023-03-19T17:14:49.175Z,9.63
2023-03-19T17:17:20.203Z,9.54
2023-03-19T17:19:51.470Z,9.59
2023-03-19T17:22:19.877Z,9.59
2023-03-19T17:24:48.355Z,9.51
2023-03-19T17:27:16.771Z,9.42
2023-03-19T17:29:45.316Z,9.40
2023-03-19T17:32:18.869Z,9.37
2023-03-19T17:34:47.842Z,9.40
2023-03-19T17:37:17.498Z,9.33
2023-03-19T17:39:46.111Z,9.26
2023-03-19T17:42:22.943Z,9.27
2023-03-19T17:44:52.098Z,9.15
2023-03-19T17:47:20.682Z,9.14
2023-03-19T17:49:48.983Z,9.04
2023-03-19T17:52:20.118Z,9.09
2023-03-19T17:54:48.405Z,9.11
2023-03-19T17:57:17.904Z,9.04
2023-03-19T17:59:46.225Z,9.09
2023-03-19T18:02:25.798Z,8.95
2023-03-19T18:04:54.294Z,8.96
2023-03-19T18:07:23.936Z,8.96
2023-03-19T18:09:52.257Z,9.01
2023-03-19T18:12:20.522Z,8.93
2023-03-19T18:14:48.768Z,8.98
2023-03-19T18:17:18.619Z,8.95
2023-03-19T18:19:50.669Z,9.02
2023-03-19T18:22:20.267Z,8.93
2023-03-19T18:24:49.962Z,8.87
2023-03-19T18:27:18.236Z,8.87
2023-03-19T18:29:46.724Z,8.82
2023-03-19T18:32:20.017Z,8.82
2023-03-19T18:34:48.346Z,8.82
2023-03-19T18:37:18.328Z,8.78
2023-03-19T18:39:46.823Z,8.76
2023-03-19T18:42:16.678Z,8.76
2023-03-19T18:44:45.191Z,8.81
2023-03-19T18:47:15.768Z,8.80
2023-03-19T18:49:44.967Z,8.85
2023-03-19T18:52:18.669Z,8.80
2023-03-19T18:54:47.812Z,8.76
2023-03-19T18:57:18.112Z,8.81
2023-03-19T18:59:47.035Z,8.82
2023-03-19T19:02:32.505Z,8.73
2023-03-19T19:05:01.064Z,8.73
2023-03-19T19:07:29.331Z,8.71
2023-03-19T19:09:57.664Z,8.64
2023-03-19T19:12:28.251Z,8.65
2023-03-19T19:14:58.720Z,8.70
2023-03-19T19:17:29.618Z,8.68
2023-03-19T19:19:57.896Z,8.59
2023-03-19T19:22:26.179Z,8.37
2023-03-19T19:24:54.576Z,8.23
2023-03-19T19:27:25.878Z,8.08
2023-03-19T19:29:56.016Z,7.94
2023-03-19T19:32:36.454Z,7.81
2023-03-19T19:35:06.851Z,7.67
2023-03-19T19:37:35.352Z,7.57
2023-03-19T19:40:03.669Z,7.44
2023-03-19T19:42:31.964Z,7.31
2023-03-19T19:45:03.450Z,7.19
2023-03-19T19:47:32.538Z,7.09
2023-03-19T19:50:00.865Z,7.02
2023-03-19T19:52:31.644Z,6.97
2023-03-19T19:55:00.358Z,6.89
2023-03-19T19:57:28.602Z,6.79
2023-03-19T19:59:56.910Z,6.76
2023-03-19T20:02:28.482Z,6.84
2023-03-19T20:04:57.115Z,6.93
2023-03-19T20:07:25.821Z,6.93
2023-03-19T20:09:54.205Z,6.85
2023-03-19T20:12:24.052Z,6.79
2023-03-19T20:14:52.724Z,6.64
2023-03-19T20:17:22.010Z,6.55
2023-03-19T20:19:51.878Z,6.53
2023-03-19T20:22:20.363Z,6.46
2023-03-19T20:24:51.338Z,6.41
2023-03-19T20:27:23.068Z,6.37
2023-03-19T20:29:53.656Z,6.31
2023-03-19T20:32:28.528Z,6.27
2023-03-19T20:34:58.224Z,6.28
2023-03-19T20:37:26.605Z,6.17
2023-03-19T20:39:55.068Z,6.14
2023-03-19T20:42:46.734Z,6.24
2023-03-19T20:45:20.971Z,6.29
2023-03-19T20:47:50.450Z,6.27
2023-03-19T20:50:23.825Z,6.14
2023-03-19T20:52:52.714Z,6.14
2023-03-19T20:55:23.171Z,6.06
2023-03-19T20:57:52.372Z,5.97
2023-03-19T21:00:24.419Z,5.92
2023-03-19T21:02:53.969Z,5.87
2023-03-19T21:05:25.078Z,5.82
2023-03-19T21:07:54.501Z,5.79
2023-03-19T21:10:28.877Z,5.77
2023-03-19T21:12:57.280Z,5.75
2023-03-19T21:15:25.816Z,5.78
2023-03-19T21:17:54.323Z,5.70
2023-03-19T21:20:27.323Z,5.67
2023-03-19T21:22:59.803Z,5.63
2023-03-19T21:25:30.799Z,5.63
2023-03-19T21:28:03.327Z,5.71
2023-03-19T21:30:31.724Z,5.81
2023-03-19T21:33:01.095Z,5.74
2023-03-19T21:35:30.842Z,5.70
2023-03-19T21:37:59.059Z,5.61
2023-03-19T21:40:30.771Z,5.53
2023-03-19T21:43:03.032Z,5.46
2023-03-19T21:45:33.942Z,5.45
2023-03-19T21:48:19.673Z,5.41
2023-03-19T21:50:50.168Z,5.42
2023-03-19T21:53:18.485Z,5.46
2023-03-19T21:55:46.989Z,5.40
2023-03-19T21:58:17.401Z,5.39
2023-03-19T22:00:46.190Z,5.39
2023-03-19T22:03:18.933Z,5.41
2023-03-19T22:05:49.907Z,5.45
2023-03-19T22:08:20.728Z,5.40
2023-03-19T22:10:53.445Z,5.45
2023-03-19T22:13:24.379Z,5.46
2023-03-19T22:15:55.640Z,5.43
2023-03-19T22:18:23.945Z,5.39
2023-03-19T22:20:54.121Z,5.36
2023-03-19T22:23:22.522Z,5.26
2023-03-19T22:25:52.223Z,5.25
2023-03-19T22:28:25.726Z,5.22
2023-03-19T22:30:54.287Z,5.20
2023-03-19T22:33:24.661Z,5.20
2023-03-19T22:35:55.277Z,5.16
2023-03-19T22:38:24.464Z,5.16
2023-03-19T22:40:55.745Z,5.16
2023-03-19T22:43:29.124Z,5.16
2023-03-19T22:46:00.854Z,5.13
2023-03-19T22:48:29.526Z,5.17
2023-03-19T22:50:59.118Z,5.12
2023-03-19T22:53:29.427Z,5.12
2023-03-19T22:55:57.992Z,5.17
2023-03-19T22:58:26.863Z,5.10
2023-03-19T23:00:56.162Z,5.17
2023-03-19T23:03:26.318Z,5.17
2023-03-19T23:05:57.466Z,5.17
2023-03-19T23:08:27.762Z,5.21
2023-03-19T23:10:56.549Z,5.17
2023-03-19T23:13:24.900Z,5.20
2023-03-19T23:15:56.641Z,5.22
2023-03-19T23:18:29.962Z,5.21
2023-03-19T23:20:58.950Z,5.22
2023-03-19T23:23:29.515Z,5.21
2023-03-19T23:25:58.400Z,5.22
2023-03-19T23:28:31.825Z,5.17
2023-03-19T23:31:02.843Z,5.16
2023-03-19T23:33:31.258Z,5.16
2023-03-19T23:35:59.830Z,5.15
2023-03-19T23:38:29.746Z,5.11
2023-03-19T23:40:58.263Z,5.12
2023-03-19T23:43:28.817Z,5.17
2023-03-19T23:45:58.305Z,5.16
2023-03-19T23:48:32.429Z,5.21
2023-03-19T23:51:00.774Z,5.16
2023-03-19T23:53:30.946Z,5.17
2023-03-19T23:56:02.919Z,5.17
2023-03-19T23:58:40.176Z,5.17
